Sausalito, CA

11:07 AM PDT on September 16, 2014 (GMT -0700)
Sausalito Yacht Club | Change Station
CLOSE
Current Station
Personal Weather Station
Location: Sausalito, CA
Elevation: 0 ft
Nearby Weather Stations
Active Advisory: Beach Hazard Statement

Elev 0 ft 37.86 °N, 122.48 °W | Updated 4 days ago

Clear
Clear
68 °F
Feels Like 68 °F
N
10
Wind Variable Wind from WSW
Gusts 12 mph

Today
High -- | Low -- °F
--% Chance of Precip.
Yesterday
High -- | Low -- °F
Precip. -- in
6:52 AM 7:16 PM
Last Quarter, 43% visible
Pressure 29.92 in
Visibility 10.0 miles
Clouds Few 1300 ft
Dew Point 59 °F
Humidity 74%
Rainfall 0.01 in
Snow Depth 0 in , 0 in , 3 in
UV 6 out of 12
Pollen 5.20 out of 12
Air Quality Not available.
Flu Activity Not available.
METAR KOAK 161753Z 19004KT 10SM FEW013 21/14 A2992 RMK AO2 SLP132 T02060144 10206 20144 58003

More Conditions Fewer Conditions

Pressure 29.92 in
Visibility 10.0 miles
Clouds Few 1300 ft
Dew Point 59 °F
Humidity 74%
Rainfall 0.01 in
Snow Depth 0 in , 0 in , 3 in
UV 6 out of 12
Pollen 5.20 out of 12
Air Quality Not available.
Flu Activity Not available.
METAR KOAK 161753Z 19004KT 10SM FEW013 21/14 A2992 RMK AO2 SLP132 T02060144 10206 20144 58003

More Conditions Fewer Conditions

10-Day Weather Forecast

Almanac

Astronomy

Sep. 16, 2014 Rise Set
Actual Time 6:52 AM PDT 7:16 PM PDT
Civil Twilight 6:26 AM PDT 7:42 PM PDT
Nautical Twilight 5:55 AM PDT 8:13 PM PDT
Astronomical Twilight 5:23 AM PDT 8:44 PM PDT
Moon 12:11 AM PDT 2:39 PM PDT
Length of Visible Light 13h 16m
Length of Day
12h 23m
Tomorrow will be 2m 24s shorter.
Last Quarter, 43% of the Moon is Illuminated
Today
Last Quarter
Sep 24
New
Oct 1
First Quarter
Oct 8
Full
Oct 15
Last Quarter

Today's Extremes

State Highs State Lows

Community

WunderPhotos

Upload Photos

1,753,848 photos uploaded!

Nearby

Snow Depth

Station Depth Elevation
Spratt Creek 0 in 6200 ft
Forestdale Creek 0 in 8029 ft
CSS Lab 3 in 6900 ft
Blue Lakes 0 in 8000 ft
Adin Mountain 0 in 6200 ft

Earthquake Activity

City Distance Mag. Time & Date
Covelo, California 135 miles 3.3 1:17 PM PDT
2014-09-14
Cobb, California 69 miles 2.7 11:07 AM PDT
2014-09-14
Minimum magnitude displayed is 2.5.

Coastal Water Temperatures

Place Temperature
San Francisco, CA 64.9 °F
Richmond, CA 66.9 °F
Port Chicago, CA 69.1 °F

Nearby Weather Stations